Asheville Regional Airport (AVL)

 

Airport Diagram
Current Weather/Forecast (VFR Conditions)
METAR KAVL 202254Z 19008KT 10SM FEW038 29/19 A3008 RMK AO2 SLP156 T02940189
TAF KAVL 202122Z 2021/2118 18007KT P6SM SCT045 BKN250 FM210000 20004KT P6SM SCT050 BKN250 FM211000 34003KT 3SM BR SCT015 FM211300 30004KT P6SM SCT025 FM211500 21004KT P6SM SCT040 PROB30 2116/2118 4SM TSRA BKN040CB

All Charts
General
Chart Name Download
AIRPORT DIAGRAM
TAKEOFF MINIMUMS
ALTERNATE MINIMUMS

Departures
Chart Name Download
ASHEVILLE FIVE

Approaches
Chart Name Download
ILS OR LOC RWY 35
RNAV (GPS) RWY 17
RNAV (GPS) RWY 35


Inbound Traffic (Arrivals)

No inbound traffic.


Outbound Traffic (Departures)

No outbound traffic.